createdAt,value
2019-04-05T00:01:17.046Z,12.55
2019-04-05T00:03:47.086Z,12.00
2019-04-05T00:06:17.147Z,13.48
2019-04-05T00:08:47.839Z,12.43
2019-04-05T00:11:17.928Z,11.85
2019-04-05T00:13:48.006Z,11.57
2019-04-05T00:16:17.917Z,12.15
2019-04-05T00:18:48.037Z,11.22
2019-04-05T00:21:18.273Z,10.75
2019-04-05T00:23:48.546Z,11.30
2019-04-05T00:26:18.823Z,10.72
2019-04-05T00:28:51.610Z,11.30
2019-04-05T00:31:20.787Z,10.78
2019-04-05T00:33:51.022Z,11.40
2019-04-05T00:36:21.163Z,10.85
2019-04-05T00:38:52.051Z,10.63
2019-04-05T00:41:22.078Z,9.73
2019-04-05T00:43:52.264Z,11.48
2019-04-05T00:46:22.248Z,10.95
2019-04-05T00:48:52.422Z,9.98
2019-04-05T00:51:22.825Z,10.45
2019-04-05T00:53:53.001Z,10.53
2019-04-05T00:56:23.092Z,10.48
2019-04-05T00:58:54.856Z,10.48
2019-04-05T01:01:25.100Z,12.55
2019-04-05T01:03:56.374Z,10.30
2019-04-05T01:06:26.554Z,11.03
2019-04-05T01:08:56.758Z,11.05
2019-04-05T01:11:26.908Z,10.45
2019-04-05T01:13:58.652Z,11.90
2019-04-05T01:16:30.129Z,10.18
2019-04-05T01:19:00.342Z,10.63
2019-04-05T01:21:34.710Z,10.30
2019-04-05T01:24:05.555Z,9.73
2019-04-05T01:26:38.858Z,10.40
2019-04-05T01:29:08.983Z,10.45
2019-04-05T01:31:41.007Z,10.08
2019-04-05T01:34:11.154Z,9.83
2019-04-05T01:36:42.974Z,9.48
2019-04-05T01:39:14.514Z,11.28
2019-04-05T01:41:44.934Z,10.88
2019-04-05T01:44:15.608Z,11.20
2019-04-05T01:46:45.639Z,10.18
2019-04-05T01:49:15.678Z,10.90
2019-04-05T01:51:45.862Z,11.93
2019-04-05T01:54:16.002Z,11.65
2019-04-05T01:56:46.162Z,11.93
2019-04-05T01:59:16.402Z,11.10
2019-04-05T02:01:46.608Z,10.40
2019-04-05T02:04:16.816Z,10.63
2019-04-05T02:06:46.981Z,11.50
2019-04-05T02:09:17.316Z,10.45
2019-04-05T02:11:47.494Z,10.38
2019-04-05T02:14:17.794Z,10.90
2019-04-05T02:16:48.074Z,10.30
2019-04-05T02:19:18.203Z,10.55
2019-04-05T02:21:48.280Z,13.45
2019-04-05T02:24:18.471Z,11.48
2019-04-05T02:26:48.736Z,10.93
2019-04-05T02:29:18.942Z,10.82
2019-04-05T02:31:49.103Z,11.20
2019-04-05T02:34:19.263Z,10.60
2019-04-05T02:36:52.376Z,10.53
2019-04-05T02:39:22.528Z,10.85
2019-04-05T02:41:54.072Z,11.05
2019-04-05T02:44:25.342Z,11.30
2019-04-05T02:46:56.630Z,11.15
2019-04-05T02:49:30.334Z,10.93
2019-04-05T02:52:02.862Z,11.70
2019-04-05T02:54:34.695Z,10.18
2019-04-05T02:57:05.192Z,9.80
2019-04-05T02:59:35.583Z,11.25
2019-04-05T03:02:06.279Z,9.93
2019-04-05T03:04:36.495Z,10.75
2019-04-05T03:07:06.899Z,10.35
2019-04-05T03:10:02.267Z,10.70
2019-04-05T03:12:33.051Z,11.05
2019-04-05T03:15:05.159Z,11.18
2019-04-05T03:17:37.502Z,11.90
2019-04-05T03:20:07.922Z,11.63
2019-04-05T03:22:39.944Z,11.38
2019-04-05T03:25:10.322Z,11.08
2019-04-05T03:27:40.775Z,11.55
2019-04-05T03:30:11.084Z,10.38
2019-04-05T03:32:41.877Z,10.45
2019-04-05T03:35:12.076Z,11.22
2019-04-05T03:37:42.417Z,10.80
2019-04-05T03:40:12.862Z,10.85
2019-04-05T03:42:44.644Z,10.70
2019-04-05T03:45:14.956Z,9.87
2019-04-05T03:47:47.112Z,10.88
2019-04-05T03:50:17.635Z,10.82
2019-04-05T03:52:47.794Z,11.28
2019-04-05T03:55:18.549Z,9.95
2019-04-05T03:57:50.097Z,10.20
2019-04-05T04:00:20.364Z,11.17
2019-04-05T04:02:50.483Z,11.22
2019-04-05T04:05:20.824Z,11.33
2019-04-05T04:07:51.005Z,10.93
2019-04-05T04:10:22.276Z,10.95
2019-04-05T04:12:52.502Z,10.50
2019-04-05T04:15:25.196Z,10.55
2019-04-05T04:17:58.588Z,10.23
2019-04-05T04:20:39.891Z,10.88
2019-04-05T04:23:10.779Z,10.30
2019-04-05T04:25:41.811Z,10.95
2019-04-05T04:28:12.319Z,10.90
2019-04-05T04:30:43.145Z,12.15
2019-04-05T04:33:13.547Z,10.55
2019-04-05T04:35:43.882Z,11.27
2019-04-05T04:38:15.471Z,10.20
2019-04-05T04:40:46.832Z,9.48
2019-04-05T04:43:16.940Z,10.65
2019-04-05T04:45:47.080Z,10.57
2019-04-05T04:48:17.931Z,10.75
2019-04-05T04:50:48.454Z,12.50
2019-04-05T04:53:18.677Z,11.30
2019-04-05T04:55:48.922Z,11.83
2019-04-05T04:58:19.276Z,11.70
2019-04-05T05:00:50.920Z,10.23
2019-04-05T05:03:20.964Z,9.88
2019-04-05T05:05:51.165Z,11.25
2019-04-05T05:08:21.372Z,12.25
2019-04-05T05:10:51.631Z,11.57
2019-04-05T05:13:21.904Z,10.35
2019-04-05T05:15:52.103Z,10.55
2019-04-05T05:18:22.610Z,11.83
2019-04-05T05:20:52.849Z,11.05
2019-04-05T05:23:23.305Z,10.58
2019-04-05T05:25:54.608Z,11.12
2019-04-05T05:28:24.977Z,10.35
2019-04-05T05:30:55.186Z,10.85
2019-04-05T05:33:25.463Z,11.48
2019-04-05T05:35:56.116Z,9.05
2019-04-05T05:38:26.356Z,10.28
2019-04-05T05:40:56.553Z,10.08
2019-04-05T05:43:26.807Z,11.57
2019-04-05T05:45:56.964Z,10.43
2019-04-05T05:48:30.604Z,13.10
2019-04-05T05:50:59.937Z,9.78
2019-04-05T05:53:30.159Z,10.58
2019-04-05T05:56:00.396Z,12.88
2019-04-05T05:58:30.730Z,13.98
2019-04-05T06:01:00.893Z,11.90
2019-04-05T06:03:31.126Z,11.43
2019-04-05T06:06:21.586Z,11.12
2019-04-05T06:08:51.733Z,11.80
2019-04-05T06:11:22.884Z,12.63
2019-04-05T06:13:53.262Z,12.25
2019-04-05T06:16:25.056Z,11.75
2019-04-05T06:18:55.217Z,13.83
2019-04-05T06:21:25.363Z,11.73
2019-04-05T06:23:55.427Z,12.80
2019-04-05T06:26:27.177Z,13.38
2019-04-05T06:28:57.185Z,12.68
2019-04-05T06:31:27.545Z,11.80
2019-04-05T06:33:57.654Z,14.10
2019-04-05T06:36:27.903Z,12.90
2019-04-05T06:38:58.183Z,14.90
2019-04-05T06:41:28.526Z,14.65
2019-04-05T06:43:58.581Z,15.30
2019-04-05T06:46:28.853Z,15.68
2019-04-05T06:48:59.089Z,14.33
2019-04-05T06:51:29.229Z,13.55
2019-04-05T06:53:59.377Z,13.00
2019-04-05T06:56:29.529Z,13.70
2019-04-05T06:58:59.601Z,13.03
2019-04-05T07:01:29.948Z,12.03
2019-04-05T07:04:00.544Z,12.60
2019-04-05T07:06:30.743Z,12.13
2019-04-05T07:09:00.881Z,13.18
2019-04-05T07:11:32.588Z,13.93
2019-04-05T07:14:02.817Z,13.45
2019-04-05T07:16:33.040Z,13.35
2019-04-05T07:19:03.451Z,11.90
2019-04-05T07:21:33.612Z,12.90
2019-04-05T07:24:04.042Z,13.28
2019-04-05T07:26:34.199Z,13.98
2019-04-05T07:29:04.748Z,13.53
2019-04-05T07:31:34.842Z,12.80
2019-04-05T07:34:05.932Z,12.93
2019-04-05T07:36:36.225Z,12.63
2019-04-05T07:39:07.522Z,11.53
2019-04-05T07:41:38.011Z,13.28
2019-04-05T07:44:08.321Z,13.03
2019-04-05T07:46:38.366Z,12.33
2019-04-05T07:49:08.612Z,10.82
2019-04-05T07:51:39.779Z,12.50
2019-04-05T07:54:10.046Z,12.98
2019-04-05T07:56:40.167Z,12.33
2019-04-05T07:59:10.367Z,13.30
2019-04-05T08:01:42.584Z,13.22
2019-04-05T08:04:13.126Z,13.22
2019-04-05T08:06:44.260Z,13.72
2019-04-05T08:09:15.649Z,12.85
2019-04-05T08:11:47.141Z,13.55
2019-04-05T08:14:18.874Z,12.35
2019-04-05T08:16:49.242Z,12.58
2019-04-05T08:19:19.329Z,13.50
2019-04-05T08:21:49.541Z,11.60
2019-04-05T08:24:19.680Z,12.93
2019-04-05T08:26:49.770Z,13.43
2019-04-05T08:29:19.938Z,14.18
2019-04-05T08:31:50.162Z,14.25
2019-04-05T08:34:20.343Z,12.93
2019-04-05T08:36:50.543Z,13.45
2019-04-05T08:39:20.766Z,13.80
2019-04-05T08:42:38.706Z,13.78
2019-04-05T08:45:15.540Z,12.60
2019-04-05T08:47:45.715Z,12.78
2019-04-05T08:50:16.030Z,13.70
2019-04-05T08:52:46.182Z,13.30
2019-04-05T08:55:18.306Z,12.78
2019-04-05T08:57:48.810Z,14.80
2019-04-05T09:00:23.660Z,16.32
2019-04-05T09:02:53.941Z,13.55
2019-04-05T09:05:24.141Z,14.35
2019-04-05T09:07:54.247Z,13.83
2019-04-05T09:10:26.675Z,13.48
2019-04-05T09:12:57.025Z,13.60
2019-04-05T09:15:27.367Z,13.55
2019-04-05T09:17:57.955Z,11.48
2019-04-05T09:20:28.009Z,13.18
2019-04-05T09:22:58.109Z,12.68
2019-04-05T09:25:28.214Z,13.22
2019-04-05T09:27:58.163Z,12.07
2019-04-05T09:30:28.381Z,12.60
2019-04-05T09:32:58.453Z,12.90
2019-04-05T09:35:28.589Z,13.58
2019-04-05T09:37:58.793Z,12.65
2019-04-05T09:40:29.059Z,13.22
2019-04-05T09:42:59.196Z,13.30
2019-04-05T09:45:29.390Z,13.03
2019-04-05T09:47:59.491Z,12.28
2019-04-05T09:50:29.780Z,12.20
2019-04-05T09:52:59.946Z,12.37
2019-04-05T09:55:30.240Z,12.78
2019-04-05T09:58:00.473Z,13.05
2019-04-05T10:00:31.142Z,13.18
2019-04-05T10:03:01.338Z,13.28
2019-04-05T10:05:33.660Z,11.83
2019-04-05T10:08:03.714Z,12.70
2019-04-05T10:10:35.115Z,12.03
2019-04-05T10:13:05.384Z,12.65
2019-04-05T10:15:38.597Z,13.03
2019-04-05T10:18:08.609Z,13.05
2019-04-05T10:20:39.139Z,13.13
2019-04-05T10:23:09.263Z,12.93
2019-04-05T10:25:39.637Z,11.48
2019-04-05T10:28:09.783Z,12.53
2019-04-05T10:30:40.010Z,11.93
2019-04-05T10:33:10.101Z,12.60
2019-04-05T10:35:40.230Z,11.45
2019-04-05T10:38:10.447Z,12.80
2019-04-05T10:40:53.021Z,11.85
2019-04-05T10:43:23.017Z,12.10
2019-04-05T10:45:55.201Z,12.47
2019-04-05T10:48:25.467Z,11.33
2019-04-05T10:50:55.652Z,12.25
2019-04-05T10:53:25.746Z,12.47
2019-04-05T10:55:55.918Z,12.20
2019-04-05T10:58:26.229Z,11.35
2019-04-05T11:00:56.521Z,12.58
2019-04-05T11:03:26.664Z,11.93
2019-04-05T11:05:57.809Z,12.03
2019-04-05T11:08:27.919Z,11.45
2019-04-05T11:10:59.817Z,10.95
2019-04-05T11:13:29.916Z,11.63
2019-04-05T11:16:03.850Z,11.28
2019-04-05T11:18:34.994Z,12.35
2019-04-05T11:21:05.200Z,11.57
2019-04-05T11:23:35.552Z,11.75
2019-04-05T11:26:05.721Z,11.70
2019-04-05T11:28:35.841Z,10.95
2019-04-05T11:31:06.216Z,11.88
2019-04-05T11:33:36.606Z,12.13
2019-04-05T11:36:06.764Z,11.65
2019-04-05T11:38:37.169Z,12.70
2019-04-05T11:41:07.421Z,11.38
2019-04-05T11:43:39.361Z,12.23
2019-04-05T11:46:09.859Z,11.63
2019-04-05T11:48:41.419Z,11.18
2019-04-05T11:51:11.792Z,10.25
2019-04-05T11:53:41.951Z,11.55
2019-04-05T11:56:14.904Z,11.12
2019-04-05T11:58:48.603Z,11.20
2019-04-05T12:01:23.661Z,12.07
2019-04-05T12:03:54.940Z,10.90
2019-04-05T12:06:24.970Z,12.43
2019-04-05T12:08:55.086Z,13.13
2019-04-05T12:11:25.240Z,12.23
2019-04-05T12:13:55.402Z,11.88
2019-04-05T12:16:25.569Z,11.53
2019-04-05T12:18:55.552Z,11.03
2019-04-05T12:21:25.961Z,12.70
2019-04-05T12:23:56.195Z,11.83
2019-04-05T12:26:26.427Z,11.85
2019-04-05T12:28:56.553Z,11.78
2019-04-05T12:31:27.704Z,11.97
2019-04-05T12:33:57.780Z,11.30
2019-04-05T12:36:27.841Z,11.88
2019-04-05T12:38:57.948Z,10.75
2019-04-05T12:41:28.126Z,13.10
2019-04-05T12:43:58.097Z,11.83
2019-04-05T12:46:28.319Z,10.55
2019-04-05T12:48:58.390Z,12.00
2019-04-05T12:51:30.136Z,10.72
2019-04-05T12:54:00.187Z,11.33
2019-04-05T12:56:30.420Z,11.00
2019-04-05T12:59:00.409Z,11.18
2019-04-05T13:01:30.716Z,10.40
2019-04-05T13:04:00.790Z,10.90
2019-04-05T13:06:30.971Z,10.95
2019-04-05T13:09:01.042Z,12.33
2019-04-05T13:11:32.699Z,10.90
2019-04-05T13:14:02.826Z,11.22
2019-04-05T13:16:33.002Z,11.75
2019-04-05T13:19:03.156Z,12.23
2019-04-05T13:21:33.329Z,11.57
2019-04-05T13:24:04.387Z,10.93
2019-04-05T13:26:36.883Z,10.98
2019-04-05T13:29:07.190Z,11.40
2019-04-05T13:31:37.321Z,10.63
2019-04-05T13:34:07.424Z,10.93
2019-04-05T13:36:37.585Z,10.50
2019-04-05T13:39:08.782Z,10.05
2019-04-05T13:41:38.941Z,9.95
2019-04-05T13:44:08.969Z,10.72
2019-04-05T13:46:41.295Z,10.48
2019-04-05T13:49:11.341Z,10.35
2019-04-05T13:51:42.083Z,10.82
2019-04-05T13:54:12.982Z,10.93
2019-04-05T13:56:43.071Z,11.30
2019-04-05T13:59:13.102Z,10.00
2019-04-05T14:01:43.304Z,10.93
2019-04-05T14:04:13.442Z,9.93
2019-04-05T14:07:03.779Z,9.73
2019-04-05T14:09:34.212Z,9.93
2019-04-05T14:12:09.543Z,10.75
2019-04-05T14:14:41.515Z,9.93
2019-04-05T14:17:13.685Z,10.20
2019-04-05T14:19:44.158Z,9.50
2019-04-05T14:22:14.246Z,10.23
2019-04-05T14:24:44.439Z,9.58
2019-04-05T14:27:14.750Z,11.28
2019-04-05T14:29:47.643Z,10.80
2019-04-05T14:32:21.774Z,9.93
2019-04-05T14:34:54.387Z,10.28
2019-04-05T14:37:25.104Z,10.18
2019-04-05T14:39:55.327Z,10.18
2019-04-05T14:42:25.463Z,10.08
2019-04-05T14:44:55.540Z,9.88
2019-04-05T14:47:27.783Z,10.15
2019-04-05T14:50:00.164Z,12.13
2019-04-05T14:52:31.053Z,9.20
2019-04-05T14:55:01.190Z,9.33
2019-04-05T14:57:32.615Z,10.23
2019-04-05T15:00:03.115Z,9.53
2019-04-05T15:02:33.182Z,10.30
2019-04-05T15:05:03.783Z,10.32
2019-04-05T15:07:34.062Z,9.43
2019-04-05T15:10:04.542Z,10.40
2019-04-05T15:12:34.626Z,10.65
2019-04-05T15:15:05.549Z,8.78
2019-04-05T15:17:47.215Z,10.13
2019-04-05T15:20:08.419Z,9.43
2019-04-05T15:22:41.532Z,10.03
2019-04-05T15:25:11.318Z,9.58
2019-04-05T15:27:41.523Z,10.03
2019-04-05T15:30:11.824Z,11.53
2019-04-05T15:32:43.203Z,10.55
2019-04-05T15:35:13.536Z,9.30
2019-04-05T15:37:43.900Z,9.80
2019-04-05T15:40:14.652Z,10.50
2019-04-05T15:42:45.126Z,10.00
2019-04-05T15:45:16.195Z,10.18
2019-04-05T15:47:47.649Z,9.95
2019-04-05T15:50:19.663Z,10.15
2019-04-05T15:52:50.626Z,11.60
2019-04-05T15:55:21.135Z,10.58
2019-04-05T15:57:51.518Z,10.15
2019-04-05T16:00:40.413Z,10.28
2019-04-05T16:03:14.019Z,11.28
2019-04-05T16:05:45.916Z,9.98
2019-04-05T16:08:19.095Z,10.82
2019-04-05T16:10:50.051Z,10.68
2019-04-05T16:13:21.178Z,10.95
2019-04-05T16:15:52.360Z,11.05
2019-04-05T16:18:22.884Z,11.48
2019-04-05T16:20:53.439Z,10.50
2019-04-05T16:23:23.819Z,11.48
2019-04-05T16:25:54.063Z,10.53
2019-04-05T16:28:24.444Z,10.95
2019-04-05T16:30:54.976Z,11.10
2019-04-05T16:33:25.361Z,10.60
2019-04-05T16:35:57.302Z,11.08
2019-04-05T16:38:28.223Z,10.95
2019-04-05T16:40:59.466Z,11.22
2019-04-05T16:43:30.561Z,10.70
2019-04-05T16:46:01.612Z,11.25
2019-04-05T16:48:33.671Z,11.00
2019-04-05T16:51:04.739Z,11.20
2019-04-05T16:53:37.865Z,10.63
2019-04-05T16:56:08.582Z,11.88
2019-04-05T16:58:38.811Z,11.38
2019-04-05T17:01:10.606Z,11.60
2019-04-05T17:03:41.707Z,11.45
2019-04-05T17:06:12.016Z,11.60
2019-04-05T17:08:45.345Z,12.75
2019-04-05T17:11:15.755Z,13.43
2019-04-05T17:13:47.904Z,10.63
2019-04-05T17:16:18.497Z,11.60
2019-04-05T17:18:49.080Z,12.63
2019-04-05T17:21:19.801Z,10.98
2019-04-05T17:23:50.919Z,11.70
2019-04-05T17:26:21.262Z,10.93
2019-04-05T17:28:51.637Z,12.20
2019-04-05T17:31:22.017Z,10.63
2019-04-05T17:33:52.378Z,13.70
2019-04-05T17:36:22.434Z,12.10
2019-04-05T17:38:52.509Z,12.98
2019-04-05T17:41:22.762Z,13.08
2019-04-05T17:43:53.133Z,13.05
2019-04-05T17:46:26.677Z,13.35
2019-04-05T17:48:56.739Z,12.28
2019-04-05T17:51:27.040Z,12.43
2019-04-05T17:53:57.358Z,13.30
2019-04-05T17:56:27.840Z,13.75
2019-04-05T17:58:58.511Z,12.30
2019-04-05T18:01:28.801Z,13.60
2019-04-05T18:03:59.093Z,13.32
2019-04-05T18:06:29.405Z,13.15
2019-04-05T18:09:00.566Z,13.50
2019-04-05T18:11:32.241Z,13.88
2019-04-05T18:14:02.383Z,13.83
2019-04-05T18:16:32.690Z,14.00
2019-04-05T18:19:02.853Z,14.13
2019-04-05T18:21:34.230Z,13.32
2019-04-05T18:24:04.524Z,14.47
2019-04-05T18:26:34.726Z,13.72
2019-04-05T18:29:04.875Z,15.23
2019-04-05T18:31:35.072Z,14.28
2019-04-05T18:34:05.385Z,15.05
2019-04-05T18:36:35.687Z,14.60
2019-04-05T18:39:07.920Z,15.43
2019-04-05T18:41:38.491Z,15.32
2019-04-05T18:44:09.645Z,14.75
2019-04-05T18:46:39.754Z,14.70
2019-04-05T18:49:10.143Z,15.78
2019-04-05T18:51:40.425Z,14.53
2019-04-05T18:54:12.231Z,16.77
2019-04-05T18:56:44.368Z,16.07
2019-04-05T18:59:14.562Z,16.27
2019-04-05T19:01:44.793Z,16.02
2019-04-05T19:04:14.987Z,16.77
2019-04-05T19:06:45.213Z,14.65
2019-04-05T19:09:16.239Z,15.40
2019-04-05T19:11:46.428Z,15.43
2019-04-05T19:14:16.796Z,15.90
2019-04-05T19:16:46.946Z,16.93
2019-04-05T19:19:17.922Z,15.72
2019-04-05T19:21:52.463Z,16.02
2019-04-05T19:24:22.743Z,16.20
2019-04-05T19:26:53.000Z,16.85
2019-04-05T19:29:24.310Z,16.23
2019-04-05T19:49:37.759Z,16.10
2019-04-05T19:52:07.971Z,16.93
2019-04-05T19:54:38.097Z,15.55
2019-04-05T19:57:08.219Z,16.67
2019-04-05T20:00:13.168Z,15.48
2019-04-05T20:03:07.578Z,14.58
2019-04-05T20:05:42.876Z,14.35
2019-04-05T20:08:13.298Z,14.65
2019-04-05T20:10:43.794Z,15.35
2019-04-05T20:13:14.899Z,15.65
2019-04-05T20:15:46.008Z,15.60
2019-04-05T20:18:16.061Z,15.23
2019-04-05T20:20:46.285Z,16.07
2019-04-05T20:23:16.475Z,16.15
2019-04-05T20:25:46.566Z,15.88
2019-04-05T20:28:16.726Z,16.77
2019-04-05T20:30:46.764Z,16.77
2019-04-05T20:33:17.038Z,17.12
2019-04-05T20:35:47.068Z,16.62
2019-04-05T20:38:20.258Z,18.95
2019-04-05T20:40:50.375Z,16.00
2019-04-05T20:43:20.608Z,16.90
2019-04-05T20:45:50.677Z,17.52
2019-04-05T20:48:20.868Z,17.07
2019-04-05T20:50:50.866Z,17.73
2019-04-05T20:53:20.982Z,15.88
2019-04-05T20:55:52.019Z,16.75
2019-04-05T20:58:22.129Z,15.30
2019-04-05T21:00:52.094Z,16.07
2019-04-05T21:03:22.150Z,15.83
2019-04-05T21:05:52.292Z,15.60
2019-04-05T21:08:22.316Z,14.53
2019-04-05T21:10:52.469Z,15.80
2019-04-05T21:13:22.642Z,15.08
2019-04-05T21:15:54.898Z,15.68
2019-04-05T21:18:24.966Z,13.98
2019-04-05T21:20:55.108Z,14.87
2019-04-05T21:23:25.253Z,14.90
2019-04-05T21:25:55.409Z,15.23
2019-04-05T21:28:25.508Z,13.25
2019-04-05T21:30:55.631Z,15.08
2019-04-05T21:33:25.742Z,14.87
2019-04-05T21:35:55.824Z,13.72
2019-04-05T21:38:25.817Z,14.28
2019-04-05T21:40:55.915Z,15.03
2019-04-05T21:43:27.109Z,14.90
2019-04-05T21:45:57.446Z,14.20
2019-04-05T21:48:27.548Z,15.00
2019-04-05T21:50:57.539Z,14.05
2019-04-05T21:53:27.685Z,14.35
2019-04-05T21:55:58.922Z,15.68
2019-04-05T21:58:29.046Z,13.68
2019-04-05T22:01:01.906Z,13.78
2019-04-05T22:03:33.842Z,12.55
2019-04-05T22:06:04.411Z,14.87
2019-04-05T22:08:34.487Z,12.28
2019-04-05T22:11:05.905Z,12.63
2019-04-05T22:13:36.283Z,13.22
2019-04-05T22:16:06.524Z,13.05
2019-04-05T22:18:36.504Z,13.75
2019-04-05T22:21:06.724Z,12.40
2019-04-05T22:23:36.875Z,12.43
2019-04-05T22:26:07.005Z,12.82
2019-04-05T22:28:37.032Z,12.37
2019-04-05T22:31:07.025Z,12.07
2019-04-05T22:33:37.106Z,12.58
2019-04-05T22:36:07.166Z,12.73
2019-04-05T22:38:37.246Z,11.60
2019-04-05T22:41:07.542Z,12.43
2019-04-05T22:43:37.635Z,12.35
2019-04-05T22:46:07.825Z,12.25
2019-04-05T22:48:38.032Z,12.05
2019-04-05T22:51:08.043Z,12.40
2019-04-05T22:53:38.079Z,11.97
2019-04-05T22:56:08.177Z,11.60
2019-04-05T22:58:38.232Z,11.85
2019-04-05T23:01:08.454Z,11.83
2019-04-05T23:03:38.579Z,12.30
2019-04-05T23:06:08.614Z,13.50
2019-04-05T23:08:38.592Z,11.68
2019-04-05T23:11:08.609Z,11.73
2019-04-05T23:13:38.559Z,11.70
2019-04-05T23:16:08.589Z,11.60
2019-04-05T23:18:38.633Z,11.55
2019-04-05T23:21:08.669Z,11.63
2019-04-05T23:23:38.823Z,10.50
2019-04-05T23:26:08.954Z,13.13
2019-04-05T23:28:39.071Z,11.25
2019-04-05T23:31:09.003Z,13.00
2019-04-05T23:33:39.022Z,11.95
2019-04-05T23:36:09.136Z,11.53
2019-04-05T23:38:39.168Z,13.10
2019-04-05T23:41:09.181Z,14.85
2019-04-05T23:43:39.207Z,12.28
2019-04-05T23:46:09.382Z,13.10
2019-04-05T23:48:39.386Z,12.65
2019-04-05T23:51:09.529Z,12.05
2019-04-05T23:53:39.691Z,12.73
2019-04-05T23:56:09.703Z,13.30
2019-04-05T23:58:39.695Z,14.83
